createdAt,value
2023-02-16T00:02:16.834Z,102366.44
2023-02-16T00:04:43.192Z,102361.94
2023-02-16T00:07:15.785Z,102361.25
2023-02-16T00:09:42.118Z,102360.31
2023-02-16T00:12:22.802Z,102363.72
2023-02-16T00:14:49.206Z,102356.88
2023-02-16T00:17:21.781Z,102370.97
2023-02-16T00:19:48.100Z,102365.09
2023-02-16T00:22:20.785Z,102368.63
2023-02-16T00:24:47.125Z,102370.97
2023-02-16T00:27:16.042Z,102364.00
2023-02-16T00:29:48.784Z,102365.78
2023-02-16T00:32:15.281Z,102355.22
2023-02-16T00:34:48.800Z,102354.00
2023-02-16T00:37:15.197Z,102342.63
2023-02-16T00:39:43.151Z,102348.66
2023-02-16T00:42:24.774Z,102354.56
2023-02-16T00:44:54.156Z,102349.19
2023-02-16T00:47:35.782Z,102337.16
2023-02-16T00:50:02.139Z,102347.44
2023-02-16T00:52:38.811Z,102356.47
2023-02-16T00:55:14.898Z,102335.50
2023-02-16T00:57:51.791Z,102353.00
2023-02-16T01:00:24.166Z,102344.53
2023-02-16T01:02:51.463Z,102356.03
2023-02-16T01:05:24.810Z,102352.75
2023-02-16T01:07:51.335Z,102340.81
2023-02-16T01:10:27.753Z,102336.84
2023-02-16T01:12:54.172Z,102340.94
2023-02-16T01:15:30.793Z,102335.47
2023-02-16T01:17:57.232Z,102327.00
2023-02-16T01:20:25.625Z,102346.56
2023-02-16T01:22:58.764Z,102345.31
2023-02-16T01:25:25.225Z,102346.81
2023-02-16T01:27:51.590Z,102338.47
2023-02-16T01:30:27.839Z,102346.41
2023-02-16T01:33:00.749Z,102345.72
2023-02-16T01:35:39.754Z,102326.53
2023-02-16T01:38:12.779Z,102345.16
2023-02-16T01:40:52.764Z,102334.22
2023-02-16T01:43:21.996Z,102334.91
2023-02-16T01:46:01.749Z,102323.00
2023-02-16T01:48:30.446Z,102320.13
2023-02-16T01:51:25.760Z,102327.22
2023-02-16T01:54:05.218Z,102314.91
2023-02-16T01:56:48.761Z,102319.66
2023-02-16T02:00:01.710Z,102312.13
2023-02-16T02:02:41.778Z,102315.28
2023-02-16T02:05:27.630Z,102320.75
2023-02-16T02:08:06.754Z,102312.38
2023-02-16T02:11:03.029Z,102302.69
2023-02-16T02:13:44.768Z,102300.78
2023-02-16T02:16:18.785Z,102285.03
2023-02-16T02:18:45.141Z,102284.63
2023-02-16T02:21:20.761Z,102290.91
2023-02-16T02:23:53.118Z,102307.47
2023-02-16T02:26:49.727Z,102301.59
2023-02-16T02:30:02.857Z,102297.34
2023-02-16T02:32:54.761Z,102269.94
2023-02-16T02:35:51.140Z,102282.81
2023-02-16T02:38:30.753Z,102288.41
2023-02-16T02:41:06.414Z,102287.03
2023-02-16T02:43:48.766Z,102287.19
2023-02-16T02:46:27.114Z,102280.75
2023-02-16T02:48:59.760Z,102271.84
2023-02-16T02:51:26.083Z,102281.31
2023-02-16T02:53:54.346Z,102286.22
2023-02-16T02:56:26.716Z,102287.72
2023-02-16T02:58:56.576Z,102281.59
2023-02-16T03:01:37.739Z,102276.53
2023-02-16T03:04:07.708Z,102276.41
2023-02-16T03:06:44.734Z,102272.75
2023-02-16T03:09:19.726Z,102240.47
2023-02-16T03:11:48.338Z,102262.09
2023-02-16T03:14:27.682Z,102252.22
2023-02-16T03:16:59.497Z,102252.41
2023-02-16T03:19:32.691Z,102244.63
2023-02-16T03:22:06.706Z,102246.50
2023-02-16T03:24:39.722Z,102255.56
2023-02-16T03:27:09.410Z,102252.16
2023-02-16T03:29:44.728Z,102248.44
2023-02-16T03:32:11.461Z,102249.00
2023-02-16T03:34:44.712Z,102241.22
2023-02-16T03:37:12.148Z,102243.69
2023-02-16T03:39:45.699Z,102235.59
2023-02-16T03:42:12.207Z,102247.34
2023-02-16T03:44:44.738Z,102247.09
2023-02-16T03:47:11.082Z,102244.50
2023-02-16T03:49:43.722Z,102242.56
2023-02-16T03:52:10.246Z,102253.38
2023-02-16T03:54:42.704Z,102246.41
2023-02-16T03:57:09.076Z,102237.78
2023-02-16T03:59:41.723Z,102251.19
2023-02-16T04:02:08.136Z,102243.25
2023-02-16T04:04:40.727Z,102259.38
2023-02-16T04:07:07.073Z,102250.50
2023-02-16T04:09:39.751Z,102251.59
2023-02-16T04:12:06.648Z,102238.06
2023-02-16T04:14:33.035Z,102253.09
2023-02-16T04:17:05.730Z,102250.50
2023-02-16T04:19:32.030Z,102252.94
2023-02-16T04:22:04.723Z,102252.00
2023-02-16T04:24:31.087Z,102243.94
2023-02-16T04:27:03.695Z,102253.38
2023-02-16T04:29:30.249Z,102242.28
2023-02-16T04:31:56.696Z,102252.81
2023-02-16T04:34:29.712Z,102242.16
2023-02-16T04:37:02.682Z,102243.50
2023-02-16T04:39:29.032Z,102252.44
2023-02-16T04:41:55.412Z,102258.44
2023-02-16T04:44:28.664Z,102262.81
2023-02-16T04:46:55.124Z,102255.13
2023-02-16T04:49:27.659Z,102250.63
2023-02-16T04:52:00.858Z,102256.63
2023-02-16T04:54:27.512Z,102256.91
2023-02-16T04:56:53.835Z,102265.00
2023-02-16T04:59:26.714Z,102252.53
2023-02-16T05:01:53.218Z,102253.06
2023-02-16T05:04:26.724Z,102244.31
2023-02-16T05:06:59.693Z,102233.78
2023-02-16T05:09:26.172Z,102215.13
2023-02-16T05:11:58.665Z,102229.53
2023-02-16T05:14:27.771Z,102232.00
2023-02-16T05:17:00.740Z,102247.97
2023-02-16T05:19:27.071Z,102239.78
2023-02-16T05:21:53.360Z,102237.31
2023-02-16T05:24:28.444Z,102236.50
2023-02-16T05:26:54.960Z,102228.41
2023-02-16T05:29:21.403Z,102228.41
2023-02-16T05:31:54.767Z,102231.69
2023-02-16T05:34:27.698Z,102235.28
2023-02-16T05:36:54.043Z,102235.94
2023-02-16T05:39:27.715Z,102225.66
2023-02-16T05:41:54.056Z,102210.31
2023-02-16T05:44:20.288Z,102225.63
2023-02-16T05:46:52.769Z,102226.56
2023-02-16T05:49:19.103Z,102214.53
2023-02-16T05:51:45.758Z,102225.06
2023-02-16T05:54:18.669Z,102216.72
2023-02-16T05:56:47.217Z,102230.28
2023-02-16T05:59:20.699Z,102223.16
2023-02-16T06:01:51.286Z,102200.19
2023-02-16T06:04:25.647Z,102216.59
2023-02-16T06:06:51.998Z,102208.91
2023-02-16T06:09:24.697Z,102195.38
2023-02-16T06:11:51.000Z,102205.34
2023-02-16T06:14:24.687Z,102206.81
2023-02-16T06:16:51.361Z,102203.97
2023-02-16T06:19:19.095Z,102210.31
2023-02-16T06:21:52.634Z,102220.16
2023-02-16T06:24:25.708Z,102227.97
2023-02-16T06:35:39.660Z,102236.63
2023-02-16T06:38:12.677Z,102221.28
2023-02-16T06:40:39.008Z,102234.16
2023-02-16T06:43:11.655Z,102234.03
2023-02-16T06:45:37.978Z,102242.50
2023-02-16T06:48:10.709Z,102241.69
2023-02-16T06:50:43.691Z,102241.13
2023-02-16T06:53:16.677Z,102227.84
2023-02-16T06:55:43.006Z,102225.41
2023-02-16T06:58:16.651Z,102234.41
2023-02-16T07:00:43.112Z,102238.66
2023-02-16T07:03:09.594Z,102242.34
2023-02-16T07:05:42.679Z,102237.16
2023-02-16T07:08:09.033Z,102240.00
2023-02-16T07:10:49.029Z,102241.47
2023-02-16T07:13:16.388Z,102240.00
2023-02-16T07:15:42.794Z,102247.81
2023-02-16T07:18:09.339Z,102234.53
2023-02-16T07:20:35.809Z,102237.97
2023-02-16T07:23:02.149Z,102248.91
2023-02-16T07:25:28.590Z,102232.88
2023-02-16T07:27:55.026Z,102240.13
2023-02-16T07:30:21.695Z,102248.03
2023-02-16T07:32:48.111Z,102247.13
2023-02-16T07:35:14.453Z,102237.53
2023-02-16T07:37:40.907Z,102240.94
2023-02-16T07:40:07.873Z,102247.09
2023-02-16T07:42:34.236Z,102250.94
2023-02-16T07:45:00.804Z,102250.38
2023-02-16T07:47:27.160Z,102244.50
2023-02-16T07:49:53.552Z,102259.22
2023-02-16T07:52:19.881Z,102254.47
2023-02-16T07:54:46.290Z,102267.72
2023-02-16T07:57:12.652Z,102251.97
2023-02-16T07:59:38.996Z,102264.84
2023-02-16T08:02:05.442Z,102261.13
2023-02-16T08:04:31.853Z,102274.78
2023-02-16T08:06:58.193Z,102276.72
2023-02-16T08:09:24.631Z,102269.19
2023-02-16T08:11:50.957Z,102255.88
2023-02-16T08:14:17.364Z,102282.59
2023-02-16T08:16:43.761Z,102272.84
2023-02-16T08:19:10.116Z,102268.63
2023-02-16T08:21:36.717Z,102257.00
2023-02-16T08:24:06.666Z,102271.47
2023-02-16T08:26:36.424Z,102275.28
2023-02-16T08:29:03.656Z,102277.31
2023-02-16T08:31:31.708Z,102271.41
2023-02-16T08:33:59.931Z,102286.69
2023-02-16T08:36:31.885Z,102279.59
2023-02-16T08:38:58.795Z,102279.31
2023-02-16T08:41:29.873Z,102300.41
2023-02-16T08:43:56.321Z,102306.44
2023-02-16T08:46:22.773Z,102297.44
2023-02-16T08:48:49.223Z,102301.63
2023-02-16T08:51:17.912Z,102298.03
2023-02-16T08:53:47.467Z,102294.25
2023-02-16T08:56:15.475Z,102304.34
2023-02-16T08:58:42.645Z,102291.09
2023-02-16T09:01:10.911Z,102303.94
2023-02-16T09:03:39.103Z,102300.63
2023-02-16T09:06:06.269Z,102292.13
2023-02-16T09:08:33.992Z,102296.00
2023-02-16T09:11:16.362Z,102296.25
2023-02-16T09:13:43.548Z,102298.03
2023-02-16T09:16:12.313Z,102295.59
2023-02-16T09:18:39.376Z,102309.38
2023-02-16T09:21:06.744Z,102307.72
2023-02-16T09:23:36.162Z,102309.91
2023-02-16T09:26:03.132Z,102306.91
2023-02-16T09:28:29.830Z,102314.16
2023-02-16T09:30:56.283Z,102324.28
2023-02-16T09:33:22.624Z,102310.13
2023-02-16T09:35:48.956Z,102310.94
2023-02-16T09:38:15.336Z,102305.75
2023-02-16T09:40:41.694Z,102314.63
2023-02-16T09:43:50.000Z,102321.41
2023-02-16T09:46:19.516Z,102321.63
2023-02-16T09:48:50.112Z,102325.22
2023-02-16T09:51:33.809Z,102314.09
2023-02-16T09:54:05.717Z,102312.97
2023-02-16T09:56:37.951Z,102320.22
2023-02-16T09:59:24.456Z,102331.03
2023-02-16T10:02:15.676Z,102330.66
2023-02-16T10:04:49.957Z,102326.09
2023-02-16T10:07:39.518Z,102308.81
2023-02-16T10:10:08.554Z,102312.56
2023-02-16T10:12:43.708Z,102322.41
2023-02-16T10:15:20.567Z,102330.72
2023-02-16T10:17:51.124Z,102301.13
2023-02-16T10:20:28.871Z,102303.81
2023-02-16T10:23:03.182Z,102290.41
2023-02-16T10:25:41.317Z,102289.66
2023-02-16T10:28:41.480Z,102294.88
2023-02-16T10:31:24.062Z,102296.22
2023-02-16T10:33:57.982Z,102312.25
2023-02-16T10:36:33.398Z,102298.53
2023-02-16T10:39:13.470Z,102285.88
2023-02-16T10:41:45.524Z,102306.34
2023-02-16T10:44:24.575Z,102308.38
2023-02-16T10:46:56.740Z,102317.53
2023-02-16T10:49:24.745Z,102315.59
2023-02-16T10:51:55.209Z,102309.63
2023-02-16T10:54:32.622Z,102329.31
2023-02-16T10:57:06.620Z,102310.38
2023-02-16T10:59:46.388Z,102278.94
2023-02-16T11:02:24.670Z,102304.19
2023-02-16T11:04:53.066Z,102312.69
2023-02-16T11:07:27.877Z,102309.03
2023-02-16T11:09:56.953Z,102313.50
2023-02-16T11:12:27.756Z,102313.78
2023-02-16T11:14:59.096Z,102311.28
2023-02-16T11:17:26.534Z,102316.78
2023-02-16T11:20:00.690Z,102312.91
2023-02-16T11:22:35.074Z,102318.50
2023-02-16T11:25:23.853Z,102321.47
2023-02-16T11:27:53.645Z,102323.81
2023-02-16T11:30:28.364Z,102320.22
2023-02-16T11:32:55.900Z,102311.72
2023-02-16T11:35:22.313Z,102318.34
2023-02-16T11:37:48.722Z,102310.22
2023-02-16T11:40:20.396Z,102310.22
2023-02-16T11:42:49.569Z,102301.72
2023-02-16T11:45:34.597Z,102302.00
2023-02-16T11:48:02.959Z,102299.16
2023-02-16T11:50:32.068Z,102288.25
2023-02-16T11:53:15.127Z,102295.03
2023-02-16T11:55:47.683Z,102280.19
2023-02-16T11:58:26.644Z,102274.44
2023-02-16T12:01:22.592Z,102263.66
2023-02-16T12:04:19.478Z,102278.25
2023-02-16T12:07:03.949Z,102250.00
2023-02-16T12:09:40.722Z,102252.94
2023-02-16T12:12:17.956Z,102254.97
2023-02-16T12:14:55.669Z,102245.00
2023-02-16T12:17:41.887Z,102232.81
2023-02-16T12:20:23.191Z,102238.13
2023-02-16T12:22:59.182Z,102231.63
2023-02-16T12:25:39.396Z,102243.75
2023-02-16T12:28:18.846Z,102233.72
2023-02-16T12:30:54.426Z,102247.97
2023-02-16T12:33:49.443Z,102235.22
2023-02-16T12:36:36.255Z,102224.09
2023-02-16T12:39:15.315Z,102228.91
2023-02-16T12:41:58.277Z,102223.97
2023-02-16T12:44:37.190Z,102213.69
2023-02-16T12:47:06.488Z,102209.31
2023-02-16T12:49:45.980Z,102190.38
2023-02-16T12:52:48.616Z,102197.25
2023-02-16T12:55:30.862Z,102195.50
2023-02-16T12:58:08.540Z,102182.94
2023-02-16T13:00:42.463Z,102182.59
2023-02-16T13:03:21.253Z,102179.81
2023-02-16T13:06:00.551Z,102170.66
2023-02-16T13:08:37.776Z,102181.59
2023-02-16T13:11:10.067Z,102171.28
2023-02-16T13:13:37.718Z,102164.72
2023-02-16T13:16:29.181Z,102140.03
2023-02-16T13:18:57.068Z,102143.16
2023-02-16T13:21:51.355Z,102139.50
2023-02-16T13:24:50.597Z,102137.88
2023-02-16T13:27:30.257Z,102152.09
2023-02-16T13:30:22.927Z,102150.44
2023-02-16T13:33:08.166Z,102151.59
2023-02-16T13:35:56.268Z,102152.28
2023-02-16T13:38:46.852Z,102132.34
2023-02-16T13:41:28.207Z,102153.75
2023-02-16T13:43:56.703Z,102143.44
2023-02-16T13:46:32.031Z,102138.19
2023-02-16T13:49:00.705Z,102125.94
2023-02-16T13:51:28.772Z,102141.44
2023-02-16T13:54:02.748Z,102108.94
2023-02-16T13:56:29.041Z,102127.44
2023-02-16T13:58:57.619Z,102114.34
2023-02-16T14:01:38.587Z,102116.75
2023-02-16T14:04:11.273Z,102106.97
2023-02-16T14:06:40.427Z,102094.53
2023-02-16T14:09:12.842Z,102102.53
2023-02-16T14:11:51.025Z,102085.81
2023-02-16T14:14:26.428Z,102095.50
2023-02-16T14:16:52.820Z,102098.09
2023-02-16T14:19:24.003Z,102080.31
2023-02-16T14:21:51.249Z,102079.81
2023-02-16T14:24:31.784Z,102093.03
2023-02-16T14:27:01.432Z,102083.88
2023-02-16T14:29:42.717Z,102076.56
2023-02-16T14:32:27.313Z,102079.97
2023-02-16T14:35:05.982Z,102088.19
2023-02-16T14:37:39.346Z,102080.84
2023-02-16T14:40:20.429Z,102079.53
2023-02-16T14:43:01.569Z,102073.34
2023-02-16T14:45:58.794Z,102075.28
2023-02-16T14:48:50.156Z,102081.34
2023-02-16T14:51:50.688Z,102069.53
2023-02-16T14:54:49.293Z,102065.28
2023-02-16T14:57:34.467Z,102066.72
2023-02-16T15:00:28.618Z,102066.88
2023-02-16T15:03:00.667Z,102067.38
2023-02-16T15:05:35.726Z,102055.44
2023-02-16T15:08:11.314Z,102066.56
2023-02-16T15:10:39.906Z,102059.84
2023-02-16T15:13:06.503Z,102055.09
2023-02-16T15:15:52.048Z,102052.63
2023-02-16T15:18:22.771Z,102052.78
2023-02-16T15:20:51.609Z,102048.94
2023-02-16T15:23:21.116Z,102049.38
2023-02-16T15:25:58.160Z,102043.81
2023-02-16T15:28:27.745Z,102039.25
2023-02-16T15:30:57.769Z,102043.69
2023-02-16T15:33:24.112Z,102052.44
2023-02-16T15:35:56.321Z,102045.44
2023-02-16T15:38:24.330Z,102052.16
2023-02-16T15:41:04.760Z,102036.78
2023-02-16T15:43:38.609Z,102046.88
2023-02-16T15:46:07.536Z,102041.97
2023-02-16T15:48:37.765Z,102045.09
2023-02-16T15:51:18.729Z,102038.25
2023-02-16T15:53:45.237Z,102042.38
2023-02-16T15:56:45.945Z,102043.34
2023-02-16T15:59:37.514Z,102045.63
2023-02-16T16:02:11.854Z,102042.72
2023-02-16T16:04:43.588Z,102039.44
2023-02-16T16:07:15.687Z,102038.13
2023-02-16T16:09:43.209Z,102034.53
2023-02-16T16:12:13.472Z,102043.50
2023-02-16T16:14:53.267Z,102032.91
2023-02-16T16:17:25.931Z,102020.47
2023-02-16T16:19:52.327Z,102007.25
2023-02-16T16:22:39.561Z,102014.56
2023-02-16T16:25:30.743Z,102025.38
2023-02-16T16:27:57.179Z,102023.56
2023-02-16T16:30:23.477Z,102027.31
2023-02-16T16:33:11.158Z,102026.53
2023-02-16T16:35:37.452Z,102023.75
2023-02-16T16:38:05.822Z,102010.22
2023-02-16T16:40:35.334Z,102012.84
2023-02-16T16:43:04.690Z,102015.47
2023-02-16T16:45:40.362Z,102008.94
2023-02-16T16:48:21.051Z,101995.41
2023-02-16T16:50:47.991Z,102007.50
2023-02-16T16:53:29.708Z,102015.81
2023-02-16T16:56:01.183Z,102005.69
2023-02-16T16:58:28.448Z,102006.88
2023-02-16T17:00:54.821Z,102009.47
2023-02-16T17:03:21.188Z,101993.47
2023-02-16T17:05:47.557Z,101998.72
2023-02-16T17:08:13.948Z,101985.66
2023-02-16T17:10:41.604Z,101990.25
2023-02-16T17:13:14.918Z,101987.47
2023-02-16T17:15:48.239Z,101982.09
2023-02-16T17:18:18.077Z,101995.50
2023-02-16T17:20:45.241Z,101990.56
2023-02-16T17:23:15.989Z,101993.53
2023-02-16T17:25:42.751Z,101979.47
2023-02-16T17:28:10.950Z,101987.31
2023-02-16T17:30:38.087Z,101981.44
2023-02-16T17:33:05.040Z,101981.78
2023-02-16T17:35:31.601Z,101986.00
2023-02-16T17:37:57.940Z,101974.25
2023-02-16T17:40:25.486Z,101970.47
2023-02-16T17:42:51.950Z,101976.72
2023-02-16T17:45:22.066Z,101980.13
2023-02-16T17:47:51.001Z,101961.03
2023-02-16T17:50:18.127Z,101959.56
2023-02-16T17:52:44.881Z,101956.47
2023-02-16T17:55:12.902Z,101949.44
2023-02-16T17:57:39.709Z,101966.91
2023-02-16T18:00:08.544Z,101963.28
2023-02-16T18:02:34.944Z,101956.09
2023-02-16T18:05:01.322Z,101945.47
2023-02-16T18:07:27.771Z,101952.50
2023-02-16T18:09:54.755Z,101964.59
2023-02-16T18:12:21.101Z,101954.59
2023-02-16T18:14:47.436Z,101951.66
2023-02-16T18:17:13.800Z,101959.34
2023-02-16T18:19:40.154Z,101955.88
2023-02-16T18:22:06.547Z,101931.03
2023-02-16T18:24:32.994Z,101932.34
2023-02-16T18:26:59.484Z,101934.63
2023-02-16T18:29:25.884Z,101935.91
2023-02-16T18:31:52.374Z,101955.19
2023-02-16T18:34:18.703Z,101958.44
2023-02-16T18:36:45.008Z,101953.38
2023-02-16T18:39:11.541Z,101929.22
2023-02-16T18:41:38.603Z,101934.31
2023-02-16T18:44:05.541Z,101934.94
2023-02-16T18:46:32.120Z,101942.44
2023-02-16T18:48:58.503Z,101939.53
2023-02-16T18:51:24.917Z,101930.19
2023-02-16T18:53:51.360Z,101949.97
2023-02-16T18:56:17.774Z,101937.41
2023-02-16T18:58:44.068Z,101945.72
2023-02-16T19:01:35.239Z,101956.81
2023-02-16T19:04:02.623Z,101953.53
2023-02-16T19:06:29.162Z,101963.34
2023-02-16T19:08:55.819Z,101961.72
2023-02-16T19:11:22.369Z,101945.88
2023-02-16T19:13:48.900Z,101949.31
2023-02-16T19:16:16.409Z,101953.22
2023-02-16T19:18:42.860Z,101942.16
2023-02-16T19:21:11.212Z,101944.88
2023-02-16T19:23:37.738Z,101939.19
2023-02-16T19:26:08.782Z,101950.59
2023-02-16T19:28:35.285Z,101934.59
2023-02-16T19:31:03.172Z,101928.72
2023-02-16T19:33:30.560Z,101929.34
2023-02-16T19:36:08.415Z,101925.63
2023-02-16T19:38:35.029Z,101923.66
2023-02-16T19:41:01.371Z,101930.53
2023-02-16T19:43:27.730Z,101925.44
2023-02-16T19:45:54.232Z,101932.13
2023-02-16T19:48:20.718Z,101930.16
2023-02-16T19:50:47.297Z,101936.03
2023-02-16T19:53:13.619Z,101931.81
2023-02-16T19:55:43.760Z,101934.25
2023-02-16T19:58:10.097Z,101943.88
2023-02-16T20:00:36.956Z,101942.75
2023-02-16T20:03:03.906Z,101931.97
2023-02-16T20:05:30.370Z,101937.84
2023-02-16T20:07:56.703Z,101929.53
2023-02-16T20:10:24.618Z,101943.09
2023-02-16T20:12:51.028Z,101930.00
2023-02-16T20:15:17.442Z,101927.06
2023-02-16T20:17:43.804Z,101927.06
2023-02-16T20:20:10.429Z,101930.66
2023-02-16T20:22:36.764Z,101918.91
2023-02-16T20:25:03.215Z,101923.97
2023-02-16T20:27:29.792Z,101925.41
2023-02-16T20:29:56.140Z,101925.09
2023-02-16T20:32:26.332Z,101939.25
2023-02-16T20:34:52.779Z,101916.59
2023-02-16T20:37:19.167Z,101927.66
2023-02-16T20:39:46.212Z,101930.78
2023-02-16T20:42:12.582Z,101924.72
2023-02-16T20:44:39.033Z,101918.03
2023-02-16T20:47:05.459Z,101911.66
2023-02-16T20:49:32.524Z,101901.19
2023-02-16T20:52:00.060Z,101895.78
2023-02-16T20:54:26.419Z,101897.25
2023-02-16T20:56:52.800Z,101880.25
2023-02-16T20:59:19.389Z,101891.19
2023-02-16T21:01:46.830Z,101896.25
2023-02-16T21:04:16.042Z,101899.03
2023-02-16T21:06:42.664Z,101910.16
2023-02-16T21:09:10.864Z,101899.03
2023-02-16T21:11:38.372Z,101897.25
2023-02-16T21:14:06.087Z,101906.38
2023-02-16T21:16:32.724Z,101905.25
2023-02-16T21:18:59.398Z,101896.53
2023-02-16T21:21:26.224Z,101892.66
2023-02-16T21:23:54.228Z,101885.81
2023-02-16T21:26:23.748Z,101896.75
2023-02-16T21:28:50.791Z,101889.06
2023-02-16T21:31:20.377Z,101905.88
2023-02-16T21:33:47.334Z,101882.66
2023-02-16T21:36:16.812Z,101888.53
2023-02-16T21:38:45.195Z,101880.69
2023-02-16T21:41:17.334Z,101873.13
2023-02-16T21:43:43.592Z,101887.69
2023-02-16T21:46:10.066Z,101873.13
2023-02-16T21:48:36.456Z,101871.34
2023-02-16T21:51:02.801Z,101867.44
2023-02-16T21:53:30.519Z,101879.66
2023-02-16T21:55:56.881Z,101880.78
2023-02-16T21:58:24.573Z,101879.06
2023-02-16T22:00:51.451Z,101883.25
2023-02-16T22:03:17.978Z,101870.06
2023-02-16T22:05:44.426Z,101874.44
2023-02-16T22:08:12.629Z,101863.31
2023-02-16T22:10:40.751Z,101871.09
2023-02-16T22:13:07.085Z,101859.22
2023-02-16T22:15:36.093Z,101859.88
2023-02-16T22:18:04.106Z,101867.66
2023-02-16T22:20:30.608Z,101869.78
2023-02-16T22:22:57.120Z,101869.13
2023-02-16T22:25:23.621Z,101875.00
2023-02-16T22:27:50.227Z,101869.31
2023-02-16T22:30:16.847Z,101885.47
2023-02-16T22:32:43.229Z,101866.03
2023-02-16T22:35:09.640Z,101872.09
2023-02-16T22:37:35.984Z,101877.63
2023-02-16T22:40:02.359Z,101878.78
2023-02-16T22:42:29.380Z,101882.38
2023-02-16T22:44:55.768Z,101880.56
2023-02-16T22:47:22.100Z,101885.13
2023-02-16T22:49:48.425Z,101868.81
2023-02-16T22:52:14.773Z,101867.84
2023-02-16T22:54:41.120Z,101886.28
2023-02-16T22:57:07.475Z,101861.63
2023-02-16T22:59:33.996Z,101865.00
2023-02-16T23:02:00.381Z,101869.88
2023-02-16T23:04:26.745Z,101852.16
2023-02-16T23:06:53.318Z,101867.78
2023-02-16T23:09:21.486Z,101854.22
2023-02-16T23:11:49.589Z,101853.69
2023-02-16T23:14:16.815Z,101856.84
2023-02-16T23:16:45.105Z,101839.88
2023-02-16T23:19:14.009Z,101844.78
2023-02-16T23:21:41.229Z,101857.84
2023-02-16T23:24:11.643Z,101867.78
2023-02-16T23:26:38.240Z,101870.75
2023-02-16T23:29:04.596Z,101875.81
2023-02-16T23:31:34.292Z,101883.66
2023-02-16T23:34:02.868Z,101861.38
2023-02-16T23:36:30.140Z,101855.56
2023-02-16T23:39:00.111Z,101859.31
2023-02-16T23:41:26.522Z,101852.66
2023-02-16T23:43:52.874Z,101857.56
2023-02-16T23:46:19.387Z,101860.81
2023-02-16T23:48:45.861Z,101840.09
2023-02-16T23:51:12.370Z,101854.75
2023-02-16T23:53:38.743Z,101851.69
2023-02-16T23:56:22.710Z,101867.78
2023-02-16T23:58:50.016Z,101858.03
